Time;durP1;ratioP1;P1;durP2;ratioP2;P2;SDS_P1;SDS_P2;PMS_P1;PMS_P2;Temp;Humidity;BMP_temperature;BMP_pressure;BME280_temperature;BME280_humidity;BME280_pressure;Samples;Min_cycle;Max_cycle;Signal;HPM_P1;HPM_P2
2022/05/24 00:00:24;;;;;;;10.63;9.27;;;14.90;99.90;;;;;;5076489;28;20179;-45
2022/05/24 00:02:49;;;;;;;11.10;8.13;;;14.90;99.90;;;;;;5094653;28;20199;-45
2022/05/24 00:05:16;;;;;;;11.13;9.07;;;14.90;99.90;;;;;;5094672;28;20171;-44
2022/05/24 00:07:42;;;;;;;11.30;8.47;;;14.80;99.90;;;;;;5076296;28;20202;-45
2022/05/24 00:10:11;;;;;;;10.93;8.13;;;14.90;99.90;;;;;;5094766;28;20257;-46
2022/05/24 00:12:38;;;;;;;10.20;8.43;;;14.90;99.90;;;;;;5094713;28;20193;-46
2022/05/24 00:15:24;;;;;;;13.50;8.93;;;14.90;99.90;;;;;;5094440;28;20182;-45
2022/05/24 00:17:55;;;;;;;10.47;8.33;;;14.90;99.90;;;;;;5076241;28;20203;-46
2022/05/24 00:20:23;;;;;;;19.37;9.20;;;14.90;99.90;;;;;;5094626;28;20260;-46
2022/05/24 00:22:48;;;;;;;12.77;9.43;;;14.90;99.90;;;;;;5076543;28;20206;-45
2022/05/24 00:25:14;;;;;;;14.37;10.00;;;14.80;99.90;;;;;;5094861;28;20167;-46
2022/05/24 00:27:40;;;;;;;14.17;10.37;;;14.90;99.90;;;;;;5095031;28;20203;-45
2022/05/24 00:30:06;;;;;;;16.37;11.67;;;14.80;99.90;;;;;;5097038;28;20168;-47
2022/05/24 00:32:32;;;;;;;13.33;11.00;;;14.80;99.90;;;;;;5097806;28;20270;-46
2022/05/24 00:34:57;;;;;;;16.27;10.93;;;14.90;99.90;;;;;;5097598;28;20212;-46
2022/05/24 00:37:27;;;;;;;14.67;11.00;;;14.90;99.90;;;;;;5096656;28;20207;-47
2022/05/24 00:39:52;;;;;;;13.63;10.73;;;14.80;99.90;;;;;;5094205;28;20210;-46
2022/05/24 00:42:26;;;;;;;15.53;11.20;;;14.90;99.90;;;;;;5094305;28;20249;-46
2022/05/24 00:45:34;;;;;;;14.87;11.40;;;14.80;99.90;;;;;;5094236;28;20209;-45
2022/05/24 00:48:06;;;;;;;14.40;10.20;;;14.90;99.90;;;;;;5095056;28;20297;-42
2022/05/24 00:50:41;;;;;;;12.27;10.23;;;14.80;99.90;;;;;;5094308;28;20224;-46
2022/05/24 00:53:15;;;;;;;15.57;10.23;;;14.80;99.90;;;;;;5094429;28;20194;-46
2022/05/24 00:55:48;;;;;;;12.93;9.73;;;14.80;99.90;;;;;;5094011;28;20166;-46
2022/05/24 00:58:25;;;;;;;11.23;9.03;;;14.80;99.90;;;;;;5093786;28;20194;-46
2022/05/24 01:00:52;;;;;;;12.10;9.30;;;14.80;99.90;;;;;;5077139;28;20163;-46
2022/05/24 01:03:18;;;;;;;12.13;9.03;;;14.70;99.90;;;;;;5095212;28;20202;-45
2022/05/24 01:05:43;;;;;;;16.03;7.67;;;14.70;99.90;;;;;;5093485;28;20278;-43
2022/05/24 01:08:13;;;;;;;9.50;7.43;;;14.70;99.90;;;;;;5093649;28;20252;-44
2022/05/24 01:10:49;;;;;;;9.43;6.87;;;14.70;99.90;;;;;;5093739;28;20179;-44
2022/05/24 01:13:20;;;;;;;11.23;7.10;;;14.60;99.90;;;;;;5094017;28;20165;-45
2022/05/24 01:15:47;;;;;;;11.80;7.10;;;14.50;99.90;;;;;;5093700;28;20155;-43
2022/05/24 01:18:13;;;;;;;10.07;6.07;;;14.50;99.90;;;;;;5093442;28;20208;-46
2022/05/24 01:20:43;;;;;;;5.80;4.83;;;14.40;99.90;;;;;;5093700;28;20221;-42
2022/05/24 01:23:25;;;;;;;5.67;5.00;;;14.30;99.90;;;;;;5093655;28;20198;-44
2022/05/24 01:26:16;;;;;;;9.40;5.60;;;14.30;99.90;;;;;;5093599;28;20641;-44
2022/05/24 01:28:51;;;;;;;7.60;5.13;;;14.20;99.90;;;;;;5093317;28;20194;-46
2022/05/24 01:31:18;;;;;;;7.53;5.07;;;14.20;99.90;;;;;;5093463;28;20661;-43
2022/05/24 01:36:31;;;;;;;7.37;4.47;;;14.00;99.90;;;;;;5093780;28;20220;-45
2022/05/24 01:39:00;;;;;;;6.43;4.17;;;14.00;99.90;;;;;;5093340;28;20195;-43
2022/05/24 01:41:47;;;;;;;5.30;3.70;;;13.90;99.90;;;;;;5093281;28;20261;-45
2022/05/24 01:44:18;;;;;;;8.47;4.13;;;13.90;99.90;;;;;;5093597;28;20163;-44
2022/05/24 01:46:46;;;;;;;5.67;4.23;;;13.90;99.90;;;;;;5093015;28;20230;-44
2022/05/24 01:49:35;;;;;;;7.40;4.07;;;13.80;99.90;;;;;;5093852;28;20229;-45
2022/05/24 01:52:07;;;;;;;5.17;3.23;;;13.80;99.90;;;;;;5093326;28;20598;-43
2022/05/24 01:54:38;;;;;;;7.40;4.03;;;13.70;99.90;;;;;;5074896;28;20179;-43
2022/05/24 01:57:18;;;;;;;5.00;3.27;;;13.70;99.90;;;;;;5092977;28;20180;-43
2022/05/24 01:59:49;;;;;;;6.87;3.63;;;13.70;99.90;;;;;;5093351;28;20159;-43
2022/05/24 02:02:15;;;;;;;4.83;3.07;;;13.60;99.90;;;;;;5095182;28;20679;-45
2022/05/24 02:04:41;;;;;;;7.13;3.40;;;13.60;99.90;;;;;;5093184;28;20175;-44
2022/05/24 02:07:13;;;;;;;8.87;3.40;;;13.50;99.90;;;;;;5093131;28;20647;-43
2022/05/24 02:09:43;;;;;;;7.73;3.30;;;13.50;99.90;;;;;;5093666;28;20178;-45
2022/05/24 02:12:21;;;;;;;7.57;3.60;;;13.40;99.90;;;;;;5095902;28;20262;-44
2022/05/24 02:15:05;;;;;;;7.30;3.23;;;13.40;99.90;;;;;;5097678;28;20529;-43
2022/05/24 02:17:39;;;;;;;5.27;2.90;;;13.40;99.90;;;;;;5096956;28;20214;-43
2022/05/24 02:20:05;;;;;;;7.23;3.30;;;13.30;99.90;;;;;;5096857;28;20631;-44
2022/05/24 02:22:31;;;;;;;9.50;3.47;;;13.30;99.90;;;;;;5096487;28;20285;-44
2022/05/24 02:25:12;;;;;;;6.97;3.40;;;13.30;99.90;;;;;;5097199;28;20642;-45
2022/05/24 02:27:43;;;;;;;5.20;3.53;;;13.20;99.90;;;;;;5096480;28;20290;-45
2022/05/24 02:30:10;;;;;;;6.67;3.70;;;13.20;99.90;;;;;;5096727;28;20155;-44
2022/05/24 02:32:35;;;;;;;12.90;3.57;;;13.20;99.90;;;;;;5096354;28;20175;-44
2022/05/24 02:35:01;;;;;;;7.73;4.57;;;13.20;99.90;;;;;;5096545;28;20248;-43
2022/05/24 02:37:26;;;;;;;6.63;3.97;;;13.20;99.90;;;;;;5096281;28;20194;-45
2022/05/24 02:42:36;;;;;;;7.87;4.70;;;13.20;99.90;;;;;;5096227;28;20255;-43
2022/05/24 02:45:02;;;;;;;8.87;4.70;;;13.10;99.90;;;;;;5096082;28;20190;-45
2022/05/24 02:47:28;;;;;;;9.30;4.33;;;13.10;99.90;;;;;;5096351;28;20224;-44
2022/05/24 02:49:53;;;;;;;6.07;4.30;;;13.10;99.90;;;;;;5096119;28;20206;-44
2022/05/24 02:52:19;;;;;;;7.70;4.33;;;13.10;99.90;;;;;;5096022;28;20175;-44
2022/05/24 02:54:44;;;;;;;6.73;4.17;;;13.10;99.90;;;;;;5096559;28;20654;-45
2022/05/24 02:57:10;;;;;;;6.90;4.20;;;13.10;99.90;;;;;;5095767;28;20174;-44
2022/05/24 02:59:35;;;;;;;11.07;3.73;;;13.00;99.90;;;;;;5095911;28;20186;-44
2022/05/24 03:02:04;;;;;;;7.30;3.87;;;13.10;99.90;;;;;;5095889;28;20198;-46
2022/05/24 03:04:30;;;;;;;7.10;3.20;;;13.00;99.90;;;;;;5079045;28;20175;-45
2022/05/24 03:09:39;;;;;;;7.60;2.73;;;13.00;99.90;;;;;;5095960;28;20179;-45
2022/05/24 03:14:53;;;;;;;10.00;3.07;;;13.00;99.90;;;;;;5095941;28;20178;-44
2022/05/24 03:17:19;;;;;;;6.13;2.77;;;13.00;99.90;;;;;;5095497;28;20199;-44
2022/05/24 03:19:46;;;;;;;5.80;2.90;;;13.00;99.90;;;;;;5095856;28;20185;-45
2022/05/24 03:22:13;;;;;;;6.70;2.83;;;13.00;99.90;;;;;;5095316;28;20213;-42
2022/05/24 03:24:39;;;;;;;4.57;2.00;;;13.00;99.90;;;;;;5077362;28;20179;-44
2022/05/24 03:27:08;;;;;;;4.47;2.53;;;13.00;99.90;;;;;;5077415;28;20185;-45
2022/05/24 03:29:34;;;;;;;7.60;2.90;;;12.90;99.90;;;;;;5095606;28;20164;-44
2022/05/24 03:32:00;;;;;;;9.47;2.70;;;12.90;99.90;;;;;;5095429;28;20228;-42
2022/05/24 03:34:26;;;;;;;8.03;3.30;;;13.00;99.90;;;;;;5095297;28;20178;-43
2022/05/24 03:36:52;;;;;;;10.07;2.80;;;12.90;99.90;;;;;;5095549;28;20494;-44
2022/05/24 03:39:17;;;;;;;7.00;2.87;;;12.90;99.90;;;;;;5096035;28;20206;-43
2022/05/24 03:41:45;;;;;;;6.27;2.30;;;12.90;99.90;;;;;;5095046;28;20196;-43
2022/05/24 03:44:11;;;;;;;6.47;2.70;;;12.90;99.90;;;;;;5095010;28;20653;-42
2022/05/24 03:46:37;;;;;;;5.03;1.83;;;12.90;99.90;;;;;;5094876;28;20182;-44
2022/05/24 03:49:04;;;;;;;4.27;2.20;;;12.80;99.90;;;;;;5077256;28;20255;-46
2022/05/24 03:51:29;;;;;;;6.70;2.17;;;12.80;99.90;;;;;;5094865;28;20606;-45
2022/05/24 03:53:55;;;;;;;4.43;1.80;;;12.90;99.90;;;;;;5094763;28;20258;-44
2022/05/24 03:56:20;;;;;;;6.07;2.10;;;12.80;99.90;;;;;;5094900;28;20193;-44
2022/05/24 03:58:46;;;;;;;5.77;1.83;;;12.80;99.90;;;;;;5094740;28;20191;-45
2022/05/24 04:01:12;;;;;;;5.30;1.70;;;12.90;99.90;;;;;;5094816;28;20635;-44
2022/05/24 04:03:38;;;;;;;3.33;1.73;;;12.80;99.90;;;;;;5096301;28;20194;-37
2022/05/24 04:06:04;;;;;;;4.70;1.80;;;12.80;99.90;;;;;;5095343;28;20183;-37
2022/05/24 04:08:29;;;;;;;5.07;1.80;;;12.80;99.90;;;;;;5094813;28;20289;-39
2022/05/24 04:11:07;;;;;;;2.77;1.40;;;12.80;99.90;;;;;;5094939;28;20256;-38
2022/05/24 04:13:34;;;;;;;3.50;1.23;;;12.80;99.90;;;;;;5076293;28;20171;-40
2022/05/24 04:16:00;;;;;;;9.20;1.63;;;12.80;99.90;;;;;;5094797;28;20297;-40
2022/05/24 04:18:26;;;;;;;5.43;1.70;;;12.80;99.90;;;;;;5094304;28;20274;-37
2022/05/24 04:20:52;;;;;;;4.73;1.80;;;12.80;99.90;;;;;;5094444;28;20266;-39
2022/05/24 04:23:19;;;;;;;5.73;1.60;;;12.90;99.90;;;;;;5094288;28;20204;-40
2022/05/24 04:25:45;;;;;;;5.57;1.77;;;12.80;99.90;;;;;;5094434;28;20262;-39
2022/05/24 04:28:12;;;;;;;4.30;1.17;;;12.80;99.90;;;;;;5094425;28;20199;-40
2022/05/24 04:30:38;;;;;;;7.90;1.53;;;12.80;99.90;;;;;;5094197;28;20173;-38
2022/05/24 04:33:04;;;;;;;4.60;1.40;;;12.80;99.90;;;;;;5093690;28;20175;-39
2022/05/24 04:35:30;;;;;;;6.83;1.43;;;12.80;99.90;;;;;;5076223;28;20190;-39
2022/05/24 04:37:56;;;;;;;4.57;1.00;;;12.80;99.90;;;;;;5094574;28;20209;-40
2022/05/24 04:42:18;;;;;;;3.97;1.37;;;12.80;99.90;;;;;;5093939;28;20187;-38
2022/05/24 04:43:08;;;;;;;5.43;1.50;;;12.80;99.90;;;;;;5093755;28;20267;-39
2022/05/24 04:45:34;;;;;;;5.17;1.30;;;12.80;99.90;;;;;;5094483;28;20600;-38
2022/05/24 04:47:59;;;;;;;4.43;1.80;;;12.80;99.90;;;;;;5093711;28;20285;-39
2022/05/24 04:50:25;;;;;;;4.73;1.83;;;12.80;99.90;;;;;;5093890;28;20194;-40
2022/05/24 04:52:50;;;;;;;3.87;1.60;;;12.80;99.90;;;;;;5093787;28;20652;-39
2022/05/24 04:55:16;;;;;;;2.40;1.30;;;12.70;99.90;;;;;;5094019;28;20549;-40
2022/05/24 04:57:43;;;;;;;10.13;1.90;;;12.70;99.90;;;;;;5094210;28;20202;-42
2022/05/24 05:00:15;;;;;;;6.17;1.40;;;12.60;99.90;;;;;;5094194;28;20266;-42
2022/05/24 05:02:41;;;;;;;5.83;1.37;;;12.60;99.90;;;;;;5097190;28;20199;-41
2022/05/24 05:05:07;;;;;;;1.33;0.80;;;12.60;99.90;;;;;;5094717;28;20233;-42
2022/05/24 05:07:33;;;;;;;5.63;1.10;;;12.50;99.90;;;;;;5094905;28;20199;-41
2022/05/24 05:09:59;;;;;;;3.10;1.20;;;12.40;99.90;;;;;;5094182;28;20220;-41
2022/05/24 05:12:26;;;;;;;3.93;2.23;;;12.40;99.90;;;;;;5094464;28;20206;-41
2022/05/24 05:14:52;;;;;;;3.97;1.20;;;12.30;99.90;;;;;;5100412;28;20240;-41
2022/05/24 05:17:18;;;;;;;1.80;1.00;;;12.30;99.90;;;;;;5100679;28;20191;-41
2022/05/24 05:19:44;;;;;;;5.07;1.40;;;12.30;99.90;;;;;;5098933;28;20186;-42
2022/05/24 05:22:10;;;;;;;6.27;1.00;;;12.20;99.90;;;;;;5093608;28;20194;-41
2022/05/24 05:24:36;;;;;;;3.00;1.00;;;12.20;99.90;;;;;;5093642;28;20216;-42
2022/05/24 05:27:02;;;;;;;5.60;1.20;;;12.10;99.90;;;;;;5093385;28;20633;-41
2022/05/24 05:32:17;;;;;;;2.83;0.80;;;12.10;99.90;;;;;;5094148;28;20661;-42
2022/05/24 05:34:44;;;;;;;3.10;1.13;;;12.10;99.90;;;;;;5093464;28;20163;-40
2022/05/24 05:37:09;;;;;;;2.47;1.20;;;12.10;99.90;;;;;;5093378;28;20177;-42
2022/05/24 05:39:36;;;;;;;3.27;1.23;;;12.10;99.90;;;;;;5093417;28;20182;-42
2022/05/24 05:42:02;;;;;;;4.73;1.43;;;12.00;99.90;;;;;;5093176;28;20274;-41
2022/05/24 05:44:29;;;;;;;2.97;1.10;;;12.00;99.90;;;;;;5093623;28;20678;-42
2022/05/24 05:46:55;;;;;;;4.50;1.17;;;12.00;99.90;;;;;;5079215;28;20182;-42
2022/05/24 05:49:21;;;;;;;3.67;1.10;;;12.00;99.90;;;;;;5097303;28;20179;-43
2022/05/24 05:51:47;;;;;;;3.80;1.10;;;12.00;99.90;;;;;;5097624;28;20179;-41
2022/05/24 05:54:12;;;;;;;1.90;1.10;;;12.00;99.90;;;;;;5097411;28;20186;-40
2022/05/24 05:56:40;;;;;;;2.60;0.93;;;12.00;99.90;;;;;;5097333;28;20217;-42
2022/05/24 05:59:06;;;;;;;10.10;1.10;;;12.00;99.90;;;;;;5110022;23;20225;-44
2022/05/24 06:01:32;;;;;;;0.97;0.83;;;12.00;99.90;;;;;;5097153;28;20187;-45
2022/05/24 06:03:59;;;;;;;1.60;1.00;;;12.00;99.90;;;;;;5097230;28;20174;-42
2022/05/24 06:06:28;;;;;;;2.70;1.00;;;12.00;99.90;;;;;;5096969;28;20228;-45
2022/05/24 06:08:54;;;;;;;2.57;0.90;;;12.00;99.90;;;;;;5097051;28;20194;-44
2022/05/24 06:11:20;;;;;;;3.40;1.23;;;12.00;99.90;;;;;;5096895;28;20202;-45
2022/05/24 06:13:46;;;;;;;5.40;1.30;;;11.90;99.90;;;;;;5096877;28;20186;-43
2022/05/24 06:16:13;;;;;;;3.70;1.63;;;12.00;99.90;;;;;;5078724;28;20186;-42
2022/05/24 06:18:39;;;;;;;2.37;1.10;;;12.00;99.90;;;;;;5096687;28;20233;-43
2022/05/24 06:21:05;;;;;;;2.40;1.20;;;12.00;99.90;;;;;;5097059;28;20202;-42
2022/05/24 06:23:31;;;;;;;2.97;1.43;;;12.00;99.90;;;;;;5096616;28;20206;-44
2022/05/24 06:25:57;;;;;;;2.67;1.27;;;12.00;99.90;;;;;;5097007;28;20539;-42
2022/05/24 06:28:22;;;;;;;3.87;1.40;;;12.00;99.90;;;;;;5097080;28;20197;-44
2022/05/24 06:30:48;;;;;;;4.10;1.43;;;12.10;99.90;;;;;;5096596;28;20178;-44
2022/05/24 06:33:14;;;;;;;4.60;1.73;;;12.10;99.90;;;;;;5097018;28;20682;-43
2022/05/24 06:35:41;;;;;;;1.60;1.50;;;12.20;99.90;;;;;;5078471;28;20257;-43
2022/05/24 06:38:07;;;;;;;3.53;1.77;;;12.30;99.90;;;;;;5096186;28;20208;-42
2022/05/24 06:40:33;;;;;;;2.93;1.40;;;12.40;99.90;;;;;;5096587;28;20175;-45
2022/05/24 06:42:58;;;;;;;3.93;1.60;;;12.50;99.90;;;;;;5096193;28;20286;-44
2022/05/24 06:45:24;;;;;;;3.53;1.43;;;12.50;99.90;;;;;;5096237;28;20180;-45
2022/05/24 06:47:50;;;;;;;3.80;1.40;;;12.60;99.90;;;;;;5096490;28;20248;-43
2022/05/24 06:50:16;;;;;;;6.40;1.80;;;12.60;99.90;;;;;;5096302;28;20582;-43
2022/05/24 06:52:43;;;;;;;3.60;1.80;;;12.70;99.90;;;;;;5096700;28;20176;-42
2022/05/24 06:55:10;;;;;;;4.00;1.70;;;12.70;99.90;;;;;;5096351;28;20190;-41
2022/05/24 06:57:36;;;;;;;6.67;2.00;;;12.80;99.90;;;;;;5095316;28;20560;-42
2022/05/24 07:02:49;;;;;;;2.40;1.10;;;12.90;99.90;;;;;;5096263;28;20220;-45
2022/05/24 07:05:19;;;;;;;6.70;2.17;;;13.00;99.90;;;;;;5095783;28;20223;-43
2022/05/24 07:07:45;;;;;;;4.00;2.23;;;13.10;99.90;;;;;;5096041;28;20199;-43
2022/05/24 07:10:13;;;;;;;6.03;2.03;;;13.20;99.90;;;;;;5095680;28;20175;-45
2022/05/24 07:12:39;;;;;;;8.33;2.30;;;13.30;99.90;;;;;;5095639;28;20175;-42
2022/05/24 07:15:05;;;;;;;8.73;2.50;;;13.30;99.90;;;;;;5095661;28;20179;-44
2022/05/24 07:17:31;;;;;;;7.57;1.83;;;13.30;99.90;;;;;;5096691;28;20198;-45
2022/05/24 07:19:56;;;;;;;5.20;2.30;;;13.40;99.90;;;;;;5096156;28;20175;-42
2022/05/24 07:22:22;;;;;;;4.00;1.40;;;13.50;99.90;;;;;;5096457;28;20225;-43
2022/05/24 07:24:49;;;;;;;5.30;1.97;;;13.80;99.90;;;;;;5095854;28;20171;-43
2022/05/24 07:27:17;;;;;;;5.43;1.90;;;13.90;99.90;;;;;;5095458;28;20719;-44
2022/05/24 07:29:43;;;;;;;3.90;1.90;;;14.10;99.90;;;;;;5095342;28;20176;-44
2022/05/24 07:32:09;;;;;;;3.27;1.53;;;14.20;99.90;;;;;;5095297;28;20262;-43
2022/05/24 07:34:36;;;;;;;3.93;1.60;;;14.40;99.90;;;;;;5095455;28;20186;-43
2022/05/24 07:37:04;;;;;;;2.03;1.60;;;14.60;99.90;;;;;;5095137;28;20203;-44
2022/05/24 07:39:30;;;;;;;5.17;1.10;;;14.70;99.90;;;;;;5095910;28;20232;-42
2022/05/24 07:45:48;;;;;;;2.00;1.20;;;14.80;99.90;;;;;;5095744;28;20675;-43
2022/05/24 07:47:36;;;;;;;5.23;1.50;;;15.00;99.90;;;;;;5094746;28;20244;-44
2022/05/24 07:50:02;;;;;;;2.67;1.10;;;15.30;99.90;;;;;;5095568;28;20207;-42
2022/05/24 07:52:28;;;;;;;5.43;1.40;;;15.30;99.90;;;;;;5095283;28;20223;-43
2022/05/24 07:54:53;;;;;;;4.07;1.13;;;15.40;99.90;;;;;;5094876;28;20610;-43
2022/05/24 07:57:19;;;;;;;4.77;1.23;;;15.40;99.90;;;;;;5094755;28;20194;-45
2022/05/24 07:59:47;;;;;;;5.03;1.13;;;15.50;99.90;;;;;;5094797;28;20197;-44
2022/05/24 08:02:14;;;;;;;4.20;1.53;;;15.70;99.90;;;;;;5094525;28;20332;-44
2022/05/24 08:04:40;;;;;;;6.33;1.40;;;16.00;99.90;;;;;;5094824;28;20175;-42
2022/05/24 08:07:06;;;;;;;2.07;0.97;;;16.10;99.90;;;;;;5094603;28;20194;-41
2022/05/24 08:09:32;;;;;;;2.57;1.20;;;16.20;99.90;;;;;;5093867;28;20261;-42
2022/05/24 08:11:58;;;;;;;1.93;0.90;;;16.20;99.90;;;;;;5094493;28;20167;-41
2022/05/24 08:14:23;;;;;;;2.33;0.90;;;16.20;99.90;;;;;;5094745;28;20653;-42
2022/05/24 08:16:49;;;;;;;1.97;1.07;;;16.10;99.90;;;;;;5094427;28;20171;-44
2022/05/24 08:19:15;;;;;;;3.00;1.07;;;16.00;99.90;;;;;;5094634;28;20286;-43
2022/05/24 08:21:40;;;;;;;2.63;1.17;;;16.00;99.90;;;;;;5094712;28;20194;-43
2022/05/24 08:24:06;;;;;;;2.37;1.10;;;16.00;99.90;;;;;;5094540;28;20178;-43
2022/05/24 08:26:32;;;;;;;4.47;1.50;;;16.00;99.90;;;;;;5094421;28;20171;-43
2022/05/24 08:28:57;;;;;;;2.63;0.77;;;16.10;99.90;;;;;;5094485;28;20195;-44
2022/05/24 08:31:23;;;;;;;4.30;1.43;;;16.20;99.90;;;;;;5094251;28;20663;-42
2022/05/24 08:33:50;;;;;;;2.80;1.00;;;16.20;99.90;;;;;;5094282;28;20258;-44
2022/05/24 08:36:16;;;;;;;2.13;1.00;;;16.10;99.90;;;;;;5094368;28;20188;-43
2022/05/24 08:38:42;;;;;;;4.87;1.00;;;16.10;99.90;;;;;;5094019;28;20190;-43
2022/05/24 08:41:43;;;;;;;1.27;0.90;;;16.10;99.90;;;;;;5094003;28;20182;-42
2022/05/24 08:50:14;;;;;;;1.37;0.80;;;16.20;99.90;;;;;;5094363;28;20564;-44
2022/05/24 08:53:06;;;;;;;3.50;1.07;;;16.30;99.90;;;;;;5094326;28;20166;-44
2022/05/24 08:55:33;;;;;;;2.40;1.00;;;16.40;99.90;;;;;;5085691;28;20194;-44
2022/05/24 08:58:00;;;;;;;2.10;0.80;;;16.40;99.90;;;;;;5093956;28;20190;-43
2022/05/24 09:00:38;;;;;;;2.90;0.80;;;16.40;99.90;;;;;;5094269;28;20209;-44
2022/05/24 09:03:05;;;;;;;1.93;0.83;;;16.30;99.90;;;;;;5059375;28;20206;-43
2022/05/24 09:05:38;;;;;;;1.33;0.90;;;16.50;99.90;;;;;;5094019;28;20591;-43
2022/05/24 09:08:24;;;;;;;2.50;1.10;;;16.70;99.90;;;;;;5093605;28;20187;-43
2022/05/24 09:11:01;;;;;;;1.27;0.97;;;16.70;99.90;;;;;;5093880;28;20174;-41
2022/05/24 09:13:48;;;;;;;1.63;1.00;;;16.60;99.90;;;;;;5093829;28;20503;-43
2022/05/24 09:16:16;;;;;;;2.87;1.10;;;16.50;99.90;;;;;;5093797;28;20175;-43
2022/05/24 09:19:04;;;;;;;4.00;1.13;;;16.40;99.90;;;;;;5093828;28;20247;-45
2022/05/24 09:21:32;;;;;;;9.57;1.60;;;16.40;99.90;;;;;;5093623;28;20265;-44
2022/05/24 09:24:27;;;;;;;1.40;1.00;;;16.50;99.90;;;;;;5093439;28;20183;-44
2022/05/24 09:27:10;;;;;;;3.67;1.00;;;16.60;99.90;;;;;;5093409;28;20154;-45
2022/05/24 09:29:54;;;;;;;2.77;1.10;;;16.90;99.90;;;;;;5093659;28;20199;-44
2022/05/24 09:32:21;;;;;;;2.33;1.10;;;16.90;99.90;;;;;;5093536;28;20166;-41
2022/05/24 09:35:12;;;;;;;2.20;0.80;;;16.90;99.90;;;;;;5093465;28;20179;-44
2022/05/24 09:37:40;;;;;;;2.87;1.10;;;16.70;99.90;;;;;;5093452;28;20198;-44
2022/05/24 09:40:18;;;;;;;1.50;1.07;;;16.60;99.90;;;;;;5093322;28;20232;-45
2022/05/24 09:42:44;;;;;;;2.97;1.20;;;16.60;99.90;;;;;;5093428;28;20606;-45
2022/05/24 09:45:15;;;;;;;3.27;0.87;;;16.80;99.90;;;;;;5093225;28;20710;-45
2022/05/24 09:47:43;;;;;;;1.47;1.00;;;17.00;99.90;;;;;;5093465;28;20191;-44
2022/05/24 09:50:16;;;;;;;2.70;1.20;;;17.10;99.90;;;;;;5093367;28;20171;-44
2022/05/24 09:52:46;;;;;;;3.23;1.00;;;17.00;99.90;;;;;;5093248;28;20182;-45
2022/05/24 09:55:21;;;;;;;2.27;1.20;;;16.90;99.90;;;;;;5093521;28;20167;-44
2022/05/24 09:57:47;;;;;;;3.17;1.10;;;17.00;99.90;;;;;;5092983;28;20202;-44
2022/05/24 10:00:20;;;;;;;2.80;1.10;;;17.00;99.90;;;;;;5093172;28;20205;-41
2022/05/24 10:02:47;;;;;;;4.53;1.23;;;17.10;99.90;;;;;;5093362;28;20577;-44
2022/05/24 10:05:22;;;;;;;3.87;1.20;;;17.20;99.90;;;;;;5093142;28;20175;-44
2022/05/24 10:07:58;;;;;;;1.80;1.03;;;17.30;99.90;;;;;;5092901;28;20198;-44
2022/05/24 10:10:38;;;;;;;4.57;1.20;;;17.50;99.90;;;;;;5093349;28;20170;-44
2022/05/24 10:13:15;;;;;;;2.03;1.10;;;17.70;99.90;;;;;;5093141;28;20656;-43
2022/05/24 10:15:58;;;;;;;1.43;1.07;;;17.90;99.90;;;;;;5093246;28;20182;-45
2022/05/24 10:18:40;;;;;;;2.73;1.10;;;18.00;99.90;;;;;;5093345;28;20241;-43
2022/05/24 10:21:12;;;;;;;1.73;1.00;;;18.00;99.90;;;;;;5075862;28;20178;-45
2022/05/24 10:23:46;;;;;;;0.90;0.80;;;18.10;99.90;;;;;;5074624;28;20689;-44
2022/05/24 10:26:18;;;;;;;2.03;0.90;;;18.10;99.90;;;;;;5092729;28;20151;-45
2022/05/24 10:29:04;;;;;;;1.13;0.83;;;18.10;99.90;;;;;;5093100;28;20290;-43
2022/05/24 10:31:45;;;;;;;2.07;0.97;;;18.20;99.90;;;;;;5093671;28;20151;-45
2022/05/24 10:40:27;;;;;;;6.07;1.07;;;18.40;99.90;;;;;;5096348;28;20162;-46
2022/05/24 10:43:12;;;;;;;3.97;1.17;;;18.50;99.90;;;;;;5096415;28;20286;-44
2022/05/24 10:45:51;;;;;;;1.50;1.20;;;18.60;99.90;;;;;;5096502;28;20209;-45
2022/05/24 10:48:36;;;;;;;6.27;1.10;;;18.70;99.90;;;;;;5096111;28;20187;-46
2022/05/24 10:51:15;;;;;;;1.90;1.10;;;18.80;99.90;;;;;;5096476;28;20156;-46
2022/05/24 10:53:54;;;;;;;3.67;1.10;;;18.80;99.90;;;;;;5096406;28;20163;-44
2022/05/24 10:56:35;;;;;;;6.37;1.77;;;18.70;99.90;;;;;;5096248;28;20159;-45
2022/05/24 10:59:26;;;;;;;4.00;1.27;;;18.60;99.90;;;;;;5096121;28;20202;-46
2022/05/24 11:02:00;;;;;;;2.27;1.17;;;18.60;99.90;;;;;;5081362;28;20210;-46
2022/05/24 11:04:44;;;;;;;3.73;1.47;;;18.30;99.90;;;;;;5096173;28;20162;-46
2022/05/24 11:07:16;;;;;;;2.53;1.10;;;18.20;99.90;;;;;;5095995;28;20163;-46
2022/05/24 11:09:56;;;;;;;3.47;0.90;;;18.20;99.90;;;;;;5096043;28;20174;-46
2022/05/24 11:12:28;;;;;;;2.47;1.23;;;18.20;99.90;;;;;;5095964;28;20183;-45
2022/05/24 11:15:00;;;;;;;1.37;0.80;;;18.30;99.90;;;;;;5096077;28;20167;-43
2022/05/24 11:17:26;;;;;;;2.10;0.93;;;18.20;99.90;;;;;;5095854;28;20658;-44
2022/05/24 11:19:55;;;;;;;2.03;0.90;;;18.30;99.90;;;;;;5095277;28;20190;-45
2022/05/24 11:22:40;;;;;;;1.17;0.87;;;18.40;99.90;;;;;;5095410;28;20195;-45
2022/05/24 11:25:06;;;;;;;1.00;0.80;;;18.60;99.90;;;;;;5095635;28;20216;-44
2022/05/24 11:27:41;;;;;;;3.07;0.90;;;18.70;99.90;;;;;;5095325;28;20190;-44
2022/05/24 11:30:28;;;;;;;3.40;1.00;;;18.80;99.90;;;;;;5095655;28;20170;-45
2022/05/24 11:33:09;;;;;;;2.50;0.90;;;18.80;99.90;;;;;;5095552;28;20167;-44
2022/05/24 11:35:42;;;;;;;2.37;0.87;;;18.90;99.90;;;;;;5095217;28;20182;-46
2022/05/24 11:38:12;;;;;;;3.23;0.60;;;19.00;99.90;;;;;;5095734;28;20199;-44
2022/05/24 11:40:59;;;;;;;0.80;0.70;;;19.10;99.90;;;;;;5095725;28;20179;-45
2022/05/24 11:43:38;;;;;;;3.30;1.00;;;19.30;99.90;;;;;;5095099;28;20207;-43
2022/05/24 11:46:10;;;;;;;3.60;0.80;;;19.30;99.90;;;;;;5095303;28;20255;-45
2022/05/24 11:48:53;;;;;;;1.17;0.80;;;19.40;99.90;;;;;;5095450;28;20654;-42
2022/05/24 11:51:37;;;;;;;0.63;0.53;;;19.60;99.90;;;;;;5094918;28;20175;-45
2022/05/24 11:54:17;;;;;;;2.50;1.10;;;19.60;99.90;;;;;;5095149;28;20261;-44
2022/05/24 11:57:10;;;;;;;3.37;1.07;;;19.60;99.90;;;;;;5094873;28;20629;-45
2022/05/24 11:59:43;;;;;;;3.10;0.93;;;19.60;99.90;;;;;;5063880;28;20662;-46
2022/05/24 12:02:31;;;;;;;2.50;0.90;;;19.40;99.90;;;;;;5076532;28;20210;-45
2022/05/24 12:07:59;;;;;;;0.93;0.60;;;19.20;99.90;;;;;;5096342;28;20197;-45
2022/05/24 12:10:37;;;;;;;1.70;0.70;;;19.30;99.90;;;;;;5097911;28;20256;-44
2022/05/24 12:13:02;;;;;;;2.47;0.90;;;19.30;99.90;;;;;;5097486;28;20261;-45
2022/05/24 12:15:31;;;;;;;3.33;1.00;;;19.40;99.90;;;;;;5097781;28;20270;-47
2022/05/24 12:18:00;;;;;;;1.00;0.80;;;19.50;99.90;;;;;;5079124;28;20230;-45
2022/05/24 12:20:48;;;;;;;2.53;0.73;;;19.60;99.90;;;;;;5079365;28;20190;-45
2022/05/24 12:23:32;;;;;;;1.13;0.70;;;19.50;99.90;;;;;;5097177;28;20612;-45
2022/05/24 12:26:05;;;;;;;3.60;0.60;;;19.40;99.90;;;;;;5079239;28;20163;-47
2022/05/24 12:28:36;;;;;;;2.00;0.90;;;19.40;99.90;;;;;;5096806;28;20191;-45
2022/05/24 12:31:13;;;;;;;1.40;0.90;;;19.40;99.90;;;;;;5097239;28;20167;-47
2022/05/24 12:33:55;;;;;;;1.70;0.93;;;19.60;99.90;;;;;;5099282;28;20638;-45
2022/05/24 12:36:39;;;;;;;5.37;1.20;;;19.70;99.90;;;;;;5099418;28;20170;-46
2022/05/24 12:39:07;;;;;;;1.67;0.80;;;19.80;99.90;;;;;;5099251;28;20195;-46
2022/05/24 12:41:54;;;;;;;1.23;0.90;;;19.80;99.90;;;;;;5099321;28;20187;-45
2022/05/24 12:44:23;;;;;;;1.80;1.23;;;19.70;99.90;;;;;;5099170;28;20595;-45
2022/05/24 12:47:06;;;;;;;2.40;0.80;;;19.60;99.90;;;;;;5098932;28;20167;-45
2022/05/24 12:49:56;;;;;;;1.30;0.90;;;19.50;99.90;;;;;;5099298;28;20171;-45
2022/05/24 12:52:27;;;;;;;1.33;0.77;;;19.50;99.90;;;;;;5098296;28;20205;-44
2022/05/24 12:54:55;;;;;;;3.27;0.60;;;19.50;99.90;;;;;;5098744;28;20503;-45
2022/05/24 12:57:43;;;;;;;0.93;0.60;;;19.30;99.90;;;;;;5098804;28;20209;-45
2022/05/24 13:00:24;;;;;;;0.67;0.60;;;19.10;99.90;;;;;;5099967;28;20241;-44
2022/05/24 13:02:52;;;;;;;2.90;0.63;;;18.90;99.90;;;;;;5099117;28;20220;-46
2022/05/24 13:05:24;;;;;;;0.50;0.43;;;18.80;99.90;;;;;;5099941;28;20171;-45
2022/05/24 13:07:50;;;;;;;0.87;0.40;;;18.90;99.90;;;;;;5099423;28;20190;-45
2022/05/24 13:10:23;;;;;;;2.13;0.40;;;19.10;99.90;;;;;;5099596;28;20213;-45
2022/05/24 13:13:00;;;;;;;1.53;0.60;;;19.30;99.90;;;;;;5098294;28;20526;-45
2022/05/24 13:15:39;;;;;;;1.57;0.67;;;19.40;99.90;;;;;;5080084;28;20182;-44
2022/05/24 13:18:12;;;;;;;1.43;0.50;;;19.50;99.90;;;;;;5079647;28;20213;-44
2022/05/24 13:20:41;;;;;;;0.80;0.60;;;19.50;99.90;;;;;;5098168;28;20186;-45
2022/05/24 13:23:15;;;;;;;2.13;0.60;;;19.50;99.90;;;;;;5098446;28;20210;-45
2022/05/24 13:25:47;;;;;;;1.33;0.60;;;19.80;99.90;;;;;;5097350;28;20220;-46
2022/05/24 13:28:30;;;;;;;2.33;0.53;;;20.00;99.90;;;;;;5097944;28;20207;-46
2022/05/24 13:33:46;;;;;;;1.47;0.60;;;20.10;99.90;;;;;;5097191;28;20695;-47
2022/05/24 13:36:22;;;;;;;1.27;0.73;;;20.10;99.90;;;;;;5097356;28;20189;-45
2022/05/24 13:39:10;;;;;;;1.70;0.80;;;20.10;99.90;;;;;;5096718;28;20206;-45
2022/05/24 13:41:39;;;;;;;1.57;0.83;;;20.20;99.90;;;;;;5096768;28;20248;-46